sensor_id;sensor_type;location;lat;lon;timestamp;P1;durP1;ratioP1;P2;durP2;ratioP2
29432;SDS011;16405;53.964;13.448;2022-12-10T00:01:44;25.08;;;12.15;;
29432;SDS011;16405;53.964;13.448;2022-12-10T00:04:11;23.35;;;12.18;;
29432;SDS011;16405;53.964;13.448;2022-12-10T00:06:38;20.17;;;11.77;;
29432;SDS011;16405;53.964;13.448;2022-12-10T00:09:05;25.38;;;12.60;;
29432;SDS011;16405;53.964;13.448;2022-12-10T00:11:36;24.33;;;12.80;;
29432;SDS011;16405;53.964;13.448;2022-12-10T00:14:03;27.67;;;13.30;;
29432;SDS011;16405;53.964;13.448;2022-12-10T00:16:32;27.70;;;12.57;;
29432;SDS011;16405;53.964;13.448;2022-12-10T00:19:06;24.80;;;12.95;;
29432;SDS011;16405;53.964;13.448;2022-12-10T00:21:33;25.33;;;12.77;;
29432;SDS011;16405;53.964;13.448;2022-12-10T00:24:01;32.17;;;13.77;;
29432;SDS011;16405;53.964;13.448;2022-12-10T00:26:33;28.98;;;14.45;;
29432;SDS011;16405;53.964;13.448;2022-12-10T00:29:02;25.42;;;14.05;;
29432;SDS011;16405;53.964;13.448;2022-12-10T00:31:32;27.90;;;13.85;;
29432;SDS011;16405;53.964;13.448;2022-12-10T00:34:03;30.40;;;13.98;;
29432;SDS011;16405;53.964;13.448;2022-12-10T00:36:33;35.63;;;15.32;;
29432;SDS011;16405;53.964;13.448;2022-12-10T00:39:07;26.35;;;14.25;;
29432;SDS011;16405;53.964;13.448;2022-12-10T00:41:36;30.33;;;14.07;;
29432;SDS011;16405;53.964;13.448;2022-12-10T00:44:09;29.30;;;14.98;;
29432;SDS011;16405;53.964;13.448;2022-12-10T00:46:35;33.45;;;15.02;;
29432;SDS011;16405;53.964;13.448;2022-12-10T00:49:01;32.97;;;15.32;;
29432;SDS011;16405;53.964;13.448;2022-12-10T00:51:28;32.67;;;16.92;;
29432;SDS011;16405;53.964;13.448;2022-12-10T00:54:01;87.60;;;36.75;;
29432;SDS011;16405;53.964;13.448;2022-12-10T00:56:29;59.88;;;28.10;;
29432;SDS011;16405;53.964;13.448;2022-12-10T00:59:05;32.55;;;16.98;;
29432;SDS011;16405;53.964;13.448;2022-12-10T01:01:32;30.27;;;16.25;;
29432;SDS011;16405;53.964;13.448;2022-12-10T01:04:11;27.00;;;14.35;;
29432;SDS011;16405;53.964;13.448;2022-12-10T01:06:44;31.77;;;16.25;;
29432;SDS011;16405;53.964;13.448;2022-12-10T01:09:15;25.40;;;14.32;;
29432;SDS011;16405;53.964;13.448;2022-12-10T01:11:45;30.65;;;15.90;;
29432;SDS011;16405;53.964;13.448;2022-12-10T01:14:23;35.15;;;17.83;;
29432;SDS011;16405;53.964;13.448;2022-12-10T01:17:00;30.10;;;15.50;;
29432;SDS011;16405;53.964;13.448;2022-12-10T01:22:02;45.55;;;25.35;;
29432;SDS011;16405;53.964;13.448;2022-12-10T01:24:29;40.08;;;21.73;;
29432;SDS011;16405;53.964;13.448;2022-12-10T01:26:55;27.95;;;14.65;;
29432;SDS011;16405;53.964;13.448;2022-12-10T01:29:31;29.65;;;14.07;;
29432;SDS011;16405;53.964;13.448;2022-12-10T01:31:57;32.53;;;17.35;;
29432;SDS011;16405;53.964;13.448;2022-12-10T01:34:23;31.13;;;17.33;;
29432;SDS011;16405;53.964;13.448;2022-12-10T01:36:55;31.85;;;16.40;;
29432;SDS011;16405;53.964;13.448;2022-12-10T01:39:21;46.38;;;20.52;;
29432;SDS011;16405;53.964;13.448;2022-12-10T01:41:50;57.65;;;24.83;;
29432;SDS011;16405;53.964;13.448;2022-12-10T01:46:49;50.42;;;21.60;;
29432;SDS011;16405;53.964;13.448;2022-12-10T01:49:21;29.08;;;15.68;;
29432;SDS011;16405;53.964;13.448;2022-12-10T01:51:59;21.90;;;12.20;;
29432;SDS011;16405;53.964;13.448;2022-12-10T01:54:32;21.63;;;11.13;;
29432;SDS011;16405;53.964;13.448;2022-12-10T01:57:05;37.85;;;16.73;;
29432;SDS011;16405;53.964;13.448;2022-12-10T01:59:40;16.98;;;10.20;;
29432;SDS011;16405;53.964;13.448;2022-12-10T02:18:56;25.10;;;13.90;;
29432;SDS011;16405;53.964;13.448;2022-12-10T02:21:36;27.13;;;14.07;;
29432;SDS011;16405;53.964;13.448;2022-12-10T02:24:15;25.60;;;13.77;;
29432;SDS011;16405;53.964;13.448;2022-12-10T02:26:53;25.60;;;14.00;;
29432;SDS011;16405;53.964;13.448;2022-12-10T02:29:35;24.10;;;13.23;;
29432;SDS011;16405;53.964;13.448;2022-12-10T02:32:09;24.45;;;14.43;;
29432;SDS011;16405;53.964;13.448;2022-12-10T02:34:50;51.63;;;21.33;;
29432;SDS011;16405;53.964;13.448;2022-12-10T02:37:39;39.42;;;18.38;;
29432;SDS011;16405;53.964;13.448;2022-12-10T02:40:39;38.42;;;16.20;;
29432;SDS011;16405;53.964;13.448;2022-12-10T02:43:23;29.13;;;14.98;;
29432;SDS011;16405;53.964;13.448;2022-12-10T02:45:52;26.40;;;14.50;;
29432;SDS011;16405;53.964;13.448;2022-12-10T02:48:28;27.42;;;14.88;;
29432;SDS011;16405;53.964;13.448;2022-12-10T02:50:59;24.65;;;13.73;;
29432;SDS011;16405;53.964;13.448;2022-12-10T02:53:27;27.73;;;14.77;;
29432;SDS011;16405;53.964;13.448;2022-12-10T02:56:05;30.70;;;14.73;;
29432;SDS011;16405;53.964;13.448;2022-12-10T03:04:16;26.25;;;14.57;;
29432;SDS011;16405;53.964;13.448;2022-12-10T03:06:55;27.05;;;14.55;;
29432;SDS011;16405;53.964;13.448;2022-12-10T03:12:40;28.48;;;14.15;;
29432;SDS011;16405;53.964;13.448;2022-12-10T03:15:22;24.52;;;13.43;;
29432;SDS011;16405;53.964;13.448;2022-12-10T03:17:52;24.38;;;13.52;;
29432;SDS011;16405;53.964;13.448;2022-12-10T03:20:28;25.83;;;13.13;;
29432;SDS011;16405;53.964;13.448;2022-12-10T03:23:08;25.35;;;13.23;;
29432;SDS011;16405;53.964;13.448;2022-12-10T03:25:47;23.25;;;13.73;;
29432;SDS011;16405;53.964;13.448;2022-12-10T03:28:15;23.30;;;13.18;;
29432;SDS011;16405;53.964;13.448;2022-12-10T03:30:47;24.65;;;13.65;;
29432;SDS011;16405;53.964;13.448;2022-12-10T03:33:15;24.90;;;13.77;;
29432;SDS011;16405;53.964;13.448;2022-12-10T03:35:42;25.20;;;14.45;;
29432;SDS011;16405;53.964;13.448;2022-12-10T03:38:11;35.85;;;17.75;;
29432;SDS011;16405;53.964;13.448;2022-12-10T03:40:41;38.55;;;19.73;;
29432;SDS011;16405;53.964;13.448;2022-12-10T03:43:07;37.22;;;19.58;;
29432;SDS011;16405;53.964;13.448;2022-12-10T03:45:33;36.10;;;18.77;;
29432;SDS011;16405;53.964;13.448;2022-12-10T03:47:58;41.88;;;20.83;;
29432;SDS011;16405;53.964;13.448;2022-12-10T03:50:24;37.67;;;19.73;;
29432;SDS011;16405;53.964;13.448;2022-12-10T03:52:55;19.90;;;12.18;;
29432;SDS011;16405;53.964;13.448;2022-12-10T03:55:21;21.30;;;12.13;;
29432;SDS011;16405;53.964;13.448;2022-12-10T03:57:46;21.30;;;11.52;;
29432;SDS011;16405;53.964;13.448;2022-12-10T04:00:13;19.40;;;11.82;;
29432;SDS011;16405;53.964;13.448;2022-12-10T04:02:39;22.85;;;11.90;;
29432;SDS011;16405;53.964;13.448;2022-12-10T04:05:05;19.13;;;12.15;;
29432;SDS011;16405;53.964;13.448;2022-12-10T04:07:35;22.23;;;12.68;;
29432;SDS011;16405;53.964;13.448;2022-12-10T04:10:01;26.90;;;14.13;;
29432;SDS011;16405;53.964;13.448;2022-12-10T04:12:28;22.42;;;13.18;;
29432;SDS011;16405;53.964;13.448;2022-12-10T04:14:54;23.55;;;13.40;;
29432;SDS011;16405;53.964;13.448;2022-12-10T04:17:42;22.15;;;13.00;;
29432;SDS011;16405;53.964;13.448;2022-12-10T04:20:07;23.40;;;13.95;;
29432;SDS011;16405;53.964;13.448;2022-12-10T04:22:53;18.08;;;10.75;;
29432;SDS011;16405;53.964;13.448;2022-12-10T04:25:37;22.90;;;13.70;;
29432;SDS011;16405;53.964;13.448;2022-12-10T04:28:29;23.98;;;13.82;;
29432;SDS011;16405;53.964;13.448;2022-12-10T04:30:55;24.67;;;13.23;;
29432;SDS011;16405;53.964;13.448;2022-12-10T04:33:23;21.15;;;11.82;;
29432;SDS011;16405;53.964;13.448;2022-12-10T04:35:52;23.10;;;12.73;;
29432;SDS011;16405;53.964;13.448;2022-12-10T04:38:18;21.55;;;11.05;;
29432;SDS011;16405;53.964;13.448;2022-12-10T04:40:43;20.63;;;11.27;;
29432;SDS011;16405;53.964;13.448;2022-12-10T04:43:09;21.45;;;11.73;;
29432;SDS011;16405;53.964;13.448;2022-12-10T04:45:35;25.15;;;12.70;;
29432;SDS011;16405;53.964;13.448;2022-12-10T04:48:01;19.05;;;12.02;;
29432;SDS011;16405;53.964;13.448;2022-12-10T04:50:38;20.80;;;12.00;;
29432;SDS011;16405;53.964;13.448;2022-12-10T04:53:03;20.00;;;11.73;;
29432;SDS011;16405;53.964;13.448;2022-12-10T04:55:38;17.77;;;10.32;;
29432;SDS011;16405;53.964;13.448;2022-12-10T04:58:04;18.02;;;10.55;;
29432;SDS011;16405;53.964;13.448;2022-12-10T05:00:30;20.88;;;11.68;;
29432;SDS011;16405;53.964;13.448;2022-12-10T05:02:56;20.90;;;11.35;;
29432;SDS011;16405;53.964;13.448;2022-12-10T05:05:30;19.98;;;12.10;;
29432;SDS011;16405;53.964;13.448;2022-12-10T05:07:58;21.70;;;12.70;;
29432;SDS011;16405;53.964;13.448;2022-12-10T05:10:23;19.90;;;11.85;;
29432;SDS011;16405;53.964;13.448;2022-12-10T05:12:55;24.15;;;12.70;;
29432;SDS011;16405;53.964;13.448;2022-12-10T05:15:21;21.80;;;12.32;;
29432;SDS011;16405;53.964;13.448;2022-12-10T05:17:47;20.50;;;11.93;;
29432;SDS011;16405;53.964;13.448;2022-12-10T05:20:12;18.30;;;11.90;;
29432;SDS011;16405;53.964;13.448;2022-12-10T05:22:38;22.05;;;12.32;;
29432;SDS011;16405;53.964;13.448;2022-12-10T05:25:23;18.45;;;10.55;;
29432;SDS011;16405;53.964;13.448;2022-12-10T05:27:51;19.15;;;10.80;;
29432;SDS011;16405;53.964;13.448;2022-12-10T05:30:17;21.58;;;11.30;;
29432;SDS011;16405;53.964;13.448;2022-12-10T05:32:43;21.00;;;11.15;;
29432;SDS011;16405;53.964;13.448;2022-12-10T05:35:09;20.58;;;11.80;;
29432;SDS011;16405;53.964;13.448;2022-12-10T05:37:35;19.75;;;10.27;;
29432;SDS011;16405;53.964;13.448;2022-12-10T05:40:01;16.40;;;9.40;;
29432;SDS011;16405;53.964;13.448;2022-12-10T05:42:31;14.70;;;8.98;;
29432;SDS011;16405;53.964;13.448;2022-12-10T05:44:57;13.82;;;8.90;;
29432;SDS011;16405;53.964;13.448;2022-12-10T05:47:23;17.38;;;9.32;;
29432;SDS011;16405;53.964;13.448;2022-12-10T05:49:49;14.60;;;8.88;;
29432;SDS011;16405;53.964;13.448;2022-12-10T05:52:15;16.13;;;9.65;;
29432;SDS011;16405;53.964;13.448;2022-12-10T05:54:43;17.20;;;9.40;;
29432;SDS011;16405;53.964;13.448;2022-12-10T05:57:12;16.20;;;9.55;;
29432;SDS011;16405;53.964;13.448;2022-12-10T05:59:38;15.40;;;9.85;;
29432;SDS011;16405;53.964;13.448;2022-12-10T06:02:03;16.25;;;10.45;;
29432;SDS011;16405;53.964;13.448;2022-12-10T06:04:29;18.67;;;10.50;;
29432;SDS011;16405;53.964;13.448;2022-12-10T06:06:55;19.83;;;10.23;;
29432;SDS011;16405;53.964;13.448;2022-12-10T06:09:29;18.95;;;10.32;;
29432;SDS011;16405;53.964;13.448;2022-12-10T06:11:54;16.98;;;10.75;;
29432;SDS011;16405;53.964;13.448;2022-12-10T06:14:20;16.83;;;10.82;;
29432;SDS011;16405;53.964;13.448;2022-12-10T06:16:46;17.20;;;10.25;;
29432;SDS011;16405;53.964;13.448;2022-12-10T06:19:12;16.67;;;10.02;;
29432;SDS011;16405;53.964;13.448;2022-12-10T06:21:46;15.98;;;9.48;;
29432;SDS011;16405;53.964;13.448;2022-12-10T06:24:12;18.25;;;10.52;;
29432;SDS011;16405;53.964;13.448;2022-12-10T06:26:38;17.25;;;9.68;;
29432;SDS011;16405;53.964;13.448;2022-12-10T06:29:04;17.33;;;10.27;;
29432;SDS011;16405;53.964;13.448;2022-12-10T06:31:37;19.63;;;10.38;;
29432;SDS011;16405;53.964;13.448;2022-12-10T06:34:02;17.10;;;11.13;;
29432;SDS011;16405;53.964;13.448;2022-12-10T06:36:28;20.60;;;11.82;;
29432;SDS011;16405;53.964;13.448;2022-12-10T06:38:54;16.20;;;10.30;;
29432;SDS011;16405;53.964;13.448;2022-12-10T06:41:28;19.17;;;10.40;;
29432;SDS011;16405;53.964;13.448;2022-12-10T06:43:54;21.67;;;11.88;;
29432;SDS011;16405;53.964;13.448;2022-12-10T06:46:24;20.63;;;12.10;;
29432;SDS011;16405;53.964;13.448;2022-12-10T06:48:55;21.10;;;12.70;;
29432;SDS011;16405;53.964;13.448;2022-12-10T06:51:21;24.33;;;12.50;;
29432;SDS011;16405;53.964;13.448;2022-12-10T06:53:46;27.27;;;12.73;;
29432;SDS011;16405;53.964;13.448;2022-12-10T06:56:14;20.60;;;12.10;;
29432;SDS011;16405;53.964;13.448;2022-12-10T06:58:51;18.05;;;10.50;;
29432;SDS011;16405;53.964;13.448;2022-12-10T07:01:19;18.02;;;10.93;;
29432;SDS011;16405;53.964;13.448;2022-12-10T07:03:50;19.38;;;11.43;;
29432;SDS011;16405;53.964;13.448;2022-12-10T07:06:18;24.08;;;12.73;;
29432;SDS011;16405;53.964;13.448;2022-12-10T07:08:45;22.52;;;12.80;;
29432;SDS011;16405;53.964;13.448;2022-12-10T07:11:12;22.98;;;13.27;;
29432;SDS011;16405;53.964;13.448;2022-12-10T07:13:48;27.00;;;11.90;;
29432;SDS011;16405;53.964;13.448;2022-12-10T07:16:16;20.58;;;11.57;;
29432;SDS011;16405;53.964;13.448;2022-12-10T07:18:52;22.33;;;12.05;;
29432;SDS011;16405;53.964;13.448;2022-12-10T07:21:21;20.10;;;11.27;;
29432;SDS011;16405;53.964;13.448;2022-12-10T07:24:00;22.17;;;12.52;;
29432;SDS011;16405;53.964;13.448;2022-12-10T07:26:50;24.20;;;12.55;;
29432;SDS011;16405;53.964;13.448;2022-12-10T07:29:18;20.70;;;11.88;;
29432;SDS011;16405;53.964;13.448;2022-12-10T07:31:51;17.70;;;11.05;;
29432;SDS011;16405;53.964;13.448;2022-12-10T07:34:17;19.55;;;12.25;;
29432;SDS011;16405;53.964;13.448;2022-12-10T07:36:43;21.00;;;11.77;;
29432;SDS011;16405;53.964;13.448;2022-12-10T07:39:09;19.40;;;11.13;;
29432;SDS011;16405;53.964;13.448;2022-12-10T07:41:42;22.08;;;11.73;;
29432;SDS011;16405;53.964;13.448;2022-12-10T07:44:16;20.90;;;10.95;;
29432;SDS011;16405;53.964;13.448;2022-12-10T07:46:51;20.35;;;12.40;;
29432;SDS011;16405;53.964;13.448;2022-12-10T07:49:18;23.50;;;13.18;;
29432;SDS011;16405;53.964;13.448;2022-12-10T07:51:45;23.17;;;11.38;;
29432;SDS011;16405;53.964;13.448;2022-12-10T07:54:15;20.73;;;11.82;;
29432;SDS011;16405;53.964;13.448;2022-12-10T07:56:42;17.90;;;11.35;;
29432;SDS011;16405;53.964;13.448;2022-12-10T07:59:08;19.17;;;11.25;;
29432;SDS011;16405;53.964;13.448;2022-12-10T08:01:34;18.65;;;11.15;;
29432;SDS011;16405;53.964;13.448;2022-12-10T08:04:00;22.15;;;11.13;;
29432;SDS011;16405;53.964;13.448;2022-12-10T08:06:33;21.17;;;12.40;;
29432;SDS011;16405;53.964;13.448;2022-12-10T08:09:00;20.38;;;11.48;;
29432;SDS011;16405;53.964;13.448;2022-12-10T08:11:26;19.17;;;10.95;;
29432;SDS011;16405;53.964;13.448;2022-12-10T08:14:00;20.50;;;10.70;;
29432;SDS011;16405;53.964;13.448;2022-12-10T08:16:27;17.85;;;11.57;;
29432;SDS011;16405;53.964;13.448;2022-12-10T08:18:55;18.27;;;10.15;;
29432;SDS011;16405;53.964;13.448;2022-12-10T08:21:31;20.08;;;11.35;;
29432;SDS011;16405;53.964;13.448;2022-12-10T08:23:58;19.60;;;10.23;;
29432;SDS011;16405;53.964;13.448;2022-12-10T08:26:27;17.13;;;10.70;;
29432;SDS011;16405;53.964;13.448;2022-12-10T08:28:57;19.58;;;11.60;;
29432;SDS011;16405;53.964;13.448;2022-12-10T08:31:25;20.00;;;11.95;;
29432;SDS011;16405;53.964;13.448;2022-12-10T08:33:52;19.50;;;11.55;;
29432;SDS011;16405;53.964;13.448;2022-12-10T08:36:26;19.58;;;11.98;;
29432;SDS011;16405;53.964;13.448;2022-12-10T08:38:52;23.15;;;11.95;;
29432;SDS011;16405;53.964;13.448;2022-12-10T08:41:20;20.13;;;10.95;;
29432;SDS011;16405;53.964;13.448;2022-12-10T08:43:50;16.63;;;10.10;;
29432;SDS011;16405;53.964;13.448;2022-12-10T08:46:20;18.88;;;11.43;;
29432;SDS011;16405;53.964;13.448;2022-12-10T08:51:52;29.10;;;12.50;;
29432;SDS011;16405;53.964;13.448;2022-12-10T08:54:37;22.98;;;12.63;;
29432;SDS011;16405;53.964;13.448;2022-12-10T08:57:19;22.35;;;13.13;;
29432;SDS011;16405;53.964;13.448;2022-12-10T09:07:27;22.60;;;12.70;;
29432;SDS011;16405;53.964;13.448;2022-12-10T09:10:20;21.05;;;11.30;;
29432;SDS011;16405;53.964;13.448;2022-12-10T09:19:19;20.95;;;12.27;;
29432;SDS011;16405;53.964;13.448;2022-12-10T09:29:11;22.23;;;11.38;;
29432;SDS011;16405;53.964;13.448;2022-12-10T09:33:00;19.30;;;10.85;;
29432;SDS011;16405;53.964;13.448;2022-12-10T09:35:40;18.73;;;10.98;;
29432;SDS011;16405;53.964;13.448;2022-12-10T09:42:26;21.25;;;11.18;;
29432;SDS011;16405;53.964;13.448;2022-12-10T09:58:18;20.90;;;12.18;;
29432;SDS011;16405;53.964;13.448;2022-12-10T10:16:30;27.65;;;11.50;;
29432;SDS011;16405;53.964;13.448;2022-12-10T10:19:51;20.10;;;11.40;;
29432;SDS011;16405;53.964;13.448;2022-12-10T10:22:46;20.10;;;12.00;;
29432;SDS011;16405;53.964;13.448;2022-12-10T10:36:41;22.15;;;10.93;;
29432;SDS011;16405;53.964;13.448;2022-12-10T10:39:08;21.42;;;11.57;;
29432;SDS011;16405;53.964;13.448;2022-12-10T10:45:00;18.77;;;11.07;;
29432;SDS011;16405;53.964;13.448;2022-12-10T10:48:20;22.83;;;11.75;;
29432;SDS011;16405;53.964;13.448;2022-12-10T10:50:53;20.67;;;12.48;;
29432;SDS011;16405;53.964;13.448;2022-12-10T10:53:46;17.33;;;10.57;;
29432;SDS011;16405;53.964;13.448;2022-12-10T10:56:27;19.58;;;11.48;;
29432;SDS011;16405;53.964;13.448;2022-12-10T10:59:19;18.55;;;11.45;;
29432;SDS011;16405;53.964;13.448;2022-12-10T11:10:47;38.15;;;18.67;;
29432;SDS011;16405;53.964;13.448;2022-12-10T11:13:31;31.40;;;17.08;;
29432;SDS011;16405;53.964;13.448;2022-12-10T11:16:22;19.60;;;10.85;;
29432;SDS011;16405;53.964;13.448;2022-12-10T11:19:03;22.73;;;12.85;;
29432;SDS011;16405;53.964;13.448;2022-12-10T11:21:49;19.05;;;12.10;;
29432;SDS011;16405;53.964;13.448;2022-12-10T11:24:16;22.50;;;13.73;;
29432;SDS011;16405;53.964;13.448;2022-12-10T11:38:56;27.15;;;12.45;;
29432;SDS011;16405;53.964;13.448;2022-12-10T11:42:07;18.63;;;10.68;;
29432;SDS011;16405;53.964;13.448;2022-12-10T11:50:50;19.15;;;10.70;;
29432;SDS011;16405;53.964;13.448;2022-12-10T11:59:16;21.05;;;12.02;;
29432;SDS011;16405;53.964;13.448;2022-12-10T12:05:24;20.85;;;11.60;;
29432;SDS011;16405;53.964;13.448;2022-12-10T12:14:24;17.10;;;11.63;;
29432;SDS011;16405;53.964;13.448;2022-12-10T12:19:56;20.75;;;11.82;;
29432;SDS011;16405;53.964;13.448;2022-12-10T12:22:27;19.77;;;12.07;;
29432;SDS011;16405;53.964;13.448;2022-12-10T12:25:00;19.65;;;11.68;;
29432;SDS011;16405;53.964;13.448;2022-12-10T12:27:51;20.02;;;11.00;;
29432;SDS011;16405;53.964;13.448;2022-12-10T12:30:25;19.10;;;11.30;;
29432;SDS011;16405;53.964;13.448;2022-12-10T12:35:56;22.10;;;11.65;;
29432;SDS011;16405;53.964;13.448;2022-12-10T12:38:30;18.37;;;12.00;;
29432;SDS011;16405;53.964;13.448;2022-12-10T12:44:43;18.05;;;11.50;;
29432;SDS011;16405;53.964;13.448;2022-12-10T12:49:59;21.52;;;11.95;;
29432;SDS011;16405;53.964;13.448;2022-12-10T13:03:57;22.95;;;12.43;;
29432;SDS011;16405;53.964;13.448;2022-12-10T13:06:28;19.55;;;11.75;;
29432;SDS011;16405;53.964;13.448;2022-12-10T13:08:59;20.55;;;11.63;;
29432;SDS011;16405;53.964;13.448;2022-12-10T13:14:30;18.95;;;12.23;;
29432;SDS011;16405;53.964;13.448;2022-12-10T13:17:05;17.90;;;11.30;;
29432;SDS011;16405;53.964;13.448;2022-12-10T13:19:39;18.17;;;11.23;;
29432;SDS011;16405;53.964;13.448;2022-12-10T13:22:07;19.20;;;12.02;;
29432;SDS011;16405;53.964;13.448;2022-12-10T13:25:05;20.08;;;11.90;;
29432;SDS011;16405;53.964;13.448;2022-12-10T13:27:41;23.83;;;13.60;;
29432;SDS011;16405;53.964;13.448;2022-12-10T13:30:26;21.63;;;12.13;;
29432;SDS011;16405;53.964;13.448;2022-12-10T13:33:03;21.60;;;12.60;;
29432;SDS011;16405;53.964;13.448;2022-12-10T13:35:44;23.75;;;13.32;;
29432;SDS011;16405;53.964;13.448;2022-12-10T13:38:24;23.80;;;12.35;;
29432;SDS011;16405;53.964;13.448;2022-12-10T13:41:05;23.33;;;13.45;;
29432;SDS011;16405;53.964;13.448;2022-12-10T13:43:54;25.17;;;12.40;;
29432;SDS011;16405;53.964;13.448;2022-12-10T13:49:48;22.10;;;13.07;;
29432;SDS011;16405;53.964;13.448;2022-12-10T13:53:12;24.85;;;13.07;;
29432;SDS011;16405;53.964;13.448;2022-12-10T13:58:47;25.92;;;13.48;;
29432;SDS011;16405;53.964;13.448;2022-12-10T14:07:34;27.83;;;13.60;;
29432;SDS011;16405;53.964;13.448;2022-12-10T14:10:01;25.45;;;13.63;;
29432;SDS011;16405;53.964;13.448;2022-12-10T14:12:31;24.77;;;13.43;;
29432;SDS011;16405;53.964;13.448;2022-12-10T14:15:05;24.58;;;13.15;;
29432;SDS011;16405;53.964;13.448;2022-12-10T14:17:44;27.15;;;13.63;;
29432;SDS011;16405;53.964;13.448;2022-12-10T14:20:17;28.08;;;13.65;;
29432;SDS011;16405;53.964;13.448;2022-12-10T14:22:49;25.10;;;12.85;;
29432;SDS011;16405;53.964;13.448;2022-12-10T14:25:46;23.42;;;13.18;;
29432;SDS011;16405;53.964;13.448;2022-12-10T14:28:13;27.30;;;13.88;;
29432;SDS011;16405;53.964;13.448;2022-12-10T14:30:45;38.22;;;15.98;;
29432;SDS011;16405;53.964;13.448;2022-12-10T14:33:20;35.85;;;16.05;;
29432;SDS011;16405;53.964;13.448;2022-12-10T14:35:49;33.20;;;16.50;;
29432;SDS011;16405;53.964;13.448;2022-12-10T14:38:19;31.20;;;15.32;;
29432;SDS011;16405;53.964;13.448;2022-12-10T14:40:52;26.53;;;14.17;;
29432;SDS011;16405;53.964;13.448;2022-12-10T14:43:31;31.63;;;14.40;;
29432;SDS011;16405;53.964;13.448;2022-12-10T14:46:03;29.13;;;13.40;;
29432;SDS011;16405;53.964;13.448;2022-12-10T14:48:35;28.17;;;14.05;;
29432;SDS011;16405;53.964;13.448;2022-12-10T14:51:12;27.27;;;13.13;;
29432;SDS011;16405;53.964;13.448;2022-12-10T14:53:43;30.58;;;13.20;;
29432;SDS011;16405;53.964;13.448;2022-12-10T14:56:11;28.08;;;12.60;;
29432;SDS011;16405;53.964;13.448;2022-12-10T14:58:56;25.52;;;12.38;;
29432;SDS011;16405;53.964;13.448;2022-12-10T15:01:43;24.92;;;12.98;;
29432;SDS011;16405;53.964;13.448;2022-12-10T15:04:18;25.55;;;12.32;;
29432;SDS011;16405;53.964;13.448;2022-12-10T15:06:45;27.15;;;12.95;;
29432;SDS011;16405;53.964;13.448;2022-12-10T15:09:19;26.80;;;13.15;;
29432;SDS011;16405;53.964;13.448;2022-12-10T15:11:55;28.58;;;13.00;;
29432;SDS011;16405;53.964;13.448;2022-12-10T15:14:24;30.00;;;14.63;;
29432;SDS011;16405;53.964;13.448;2022-12-10T15:16:54;31.50;;;14.15;;
29432;SDS011;16405;53.964;13.448;2022-12-10T15:22:00;27.70;;;12.40;;
29432;SDS011;16405;53.964;13.448;2022-12-10T15:27:15;28.27;;;12.10;;
29432;SDS011;16405;53.964;13.448;2022-12-10T15:29:50;26.15;;;12.68;;
29432;SDS011;16405;53.964;13.448;2022-12-10T15:32:25;28.58;;;12.77;;
29432;SDS011;16405;53.964;13.448;2022-12-10T15:34:54;27.10;;;13.32;;
29432;SDS011;16405;53.964;13.448;2022-12-10T15:37:33;25.42;;;13.65;;
29432;SDS011;16405;53.964;13.448;2022-12-10T15:40:04;37.78;;;15.60;;
29432;SDS011;16405;53.964;13.448;2022-12-10T15:42:48;35.25;;;15.40;;
29432;SDS011;16405;53.964;13.448;2022-12-10T15:47:46;41.30;;;17.73;;
29432;SDS011;16405;53.964;13.448;2022-12-10T15:50:14;36.35;;;17.10;;
29432;SDS011;16405;53.964;13.448;2022-12-10T15:52:41;33.58;;;15.88;;
29432;SDS011;16405;53.964;13.448;2022-12-10T15:55:09;34.00;;;16.30;;
29432;SDS011;16405;53.964;13.448;2022-12-10T15:57:39;34.40;;;15.88;;
29432;SDS011;16405;53.964;13.448;2022-12-10T16:07:56;33.65;;;14.52;;
29432;SDS011;16405;53.964;13.448;2022-12-10T16:10:36;32.70;;;14.15;;
29432;SDS011;16405;53.964;13.448;2022-12-10T16:13:05;31.08;;;14.57;;
29432;SDS011;16405;53.964;13.448;2022-12-10T16:15:40;31.35;;;14.55;;
29432;SDS011;16405;53.964;13.448;2022-12-10T16:18:13;29.67;;;14.20;;
29432;SDS011;16405;53.964;13.448;2022-12-10T16:20:39;29.48;;;13.70;;
29432;SDS011;16405;53.964;13.448;2022-12-10T16:23:05;32.50;;;15.55;;
29432;SDS011;16405;53.964;13.448;2022-12-10T16:25:31;33.55;;;15.05;;
29432;SDS011;16405;53.964;13.448;2022-12-10T16:27:59;34.15;;;16.52;;
29432;SDS011;16405;53.964;13.448;2022-12-10T16:30:35;32.50;;;14.55;;
29432;SDS011;16405;53.964;13.448;2022-12-10T16:33:05;34.05;;;15.45;;
29432;SDS011;16405;53.964;13.448;2022-12-10T16:35:31;39.10;;;15.48;;
29432;SDS011;16405;53.964;13.448;2022-12-10T16:37:57;30.40;;;14.80;;
29432;SDS011;16405;53.964;13.448;2022-12-10T16:40:24;27.83;;;13.93;;
29432;SDS011;16405;53.964;13.448;2022-12-10T16:42:53;29.90;;;13.50;;
29432;SDS011;16405;53.964;13.448;2022-12-10T16:47:59;32.75;;;15.10;;
29432;SDS011;16405;53.964;13.448;2022-12-10T16:50:28;32.72;;;15.55;;
29432;SDS011;16405;53.964;13.448;2022-12-10T16:52:55;34.13;;;17.30;;
29432;SDS011;16405;53.964;13.448;2022-12-10T16:55:23;39.42;;;16.33;;
29432;SDS011;16405;53.964;13.448;2022-12-10T16:57:51;38.85;;;17.58;;
29432;SDS011;16405;53.964;13.448;2022-12-10T17:00:19;50.65;;;19.10;;
29432;SDS011;16405;53.964;13.448;2022-12-10T17:02:49;41.00;;;17.63;;
29432;SDS011;16405;53.964;13.448;2022-12-10T17:05:18;45.67;;;17.00;;
29432;SDS011;16405;53.964;13.448;2022-12-10T17:07:49;39.22;;;16.63;;
29432;SDS011;16405;53.964;13.448;2022-12-10T17:10:15;40.22;;;17.40;;
29432;SDS011;16405;53.964;13.448;2022-12-10T17:12:41;40.05;;;17.67;;
29432;SDS011;16405;53.964;13.448;2022-12-10T17:15:08;39.50;;;17.70;;
29432;SDS011;16405;53.964;13.448;2022-12-10T17:17:37;46.42;;;20.15;;
29432;SDS011;16405;53.964;13.448;2022-12-10T17:20:19;52.53;;;21.58;;
29432;SDS011;16405;53.964;13.448;2022-12-10T17:22:47;50.92;;;21.15;;
29432;SDS011;16405;53.964;13.448;2022-12-10T17:25:13;53.55;;;21.30;;
29432;SDS011;16405;53.964;13.448;2022-12-10T17:27:38;54.63;;;22.23;;
29432;SDS011;16405;53.964;13.448;2022-12-10T17:30:04;58.10;;;24.90;;
29432;SDS011;16405;53.964;13.448;2022-12-10T17:32:36;60.00;;;24.30;;
29432;SDS011;16405;53.964;13.448;2022-12-10T17:35:02;65.93;;;25.77;;
29432;SDS011;16405;53.964;13.448;2022-12-10T17:37:28;59.40;;;24.13;;
29432;SDS011;16405;53.964;13.448;2022-12-10T17:39:57;60.13;;;23.95;;
29432;SDS011;16405;53.964;13.448;2022-12-10T17:42:23;56.42;;;22.10;;
29432;SDS011;16405;53.964;13.448;2022-12-10T17:44:49;57.38;;;22.30;;
29432;SDS011;16405;53.964;13.448;2022-12-10T17:47:16;52.72;;;22.90;;
29432;SDS011;16405;53.964;13.448;2022-12-10T17:49:48;52.75;;;23.25;;
29432;SDS011;16405;53.964;13.448;2022-12-10T17:52:14;57.67;;;23.63;;
29432;SDS011;16405;53.964;13.448;2022-12-10T17:54:41;55.15;;;22.45;;
29432;SDS011;16405;53.964;13.448;2022-12-10T17:57:10;53.10;;;20.52;;
29432;SDS011;16405;53.964;13.448;2022-12-10T17:59:45;52.58;;;21.10;;
29432;SDS011;16405;53.964;13.448;2022-12-10T18:02:13;53.13;;;22.10;;